Terminal Aerodrome Forecast
Issued by NWS Norman, OK

Home | Current Version | Previous Version | Text Only | Print | Product List | Glossary On
Versions: 1 2 3 4 5 6 7 8 9 10 11 12 13 14 15 16 17 18 19 20 21 22 23 24 25 26 27 28 29 30 31 32
000
FTUS44 KOUN 301730
TAFOKC
TAF
KOKC 301730Z 3018/3118 15012G16KT 6SM -RA SCT009 OVC018
      TEMPO 3018/3020 4SM RA
     FM302200 02014G19KT 6SM -RA SCT009 OVC025
      TEMPO 3022/3102 4SM -TSRA BKN018CB
     FM310300 02012KT P6SM OVC025
     FM311200 02012KT P6SM BKN035=

USA.gov is the U.S. government's official web portal to all federal, state and local government web resources and services.